createdAt,value
2022-11-24T00:01:09.988Z,40.50
2022-11-24T00:03:37.247Z,59.42
2022-11-24T00:06:11.882Z,54.00
2022-11-24T00:08:40.080Z,45.20
2022-11-24T00:11:09.217Z,50.72
2022-11-24T00:13:36.210Z,55.63
2022-11-24T00:16:14.593Z,53.63
2022-11-24T00:18:42.912Z,50.80
2022-11-24T00:21:10.087Z,61.30
2022-11-24T00:23:37.420Z,60.78
2022-11-24T00:26:06.026Z,56.92
2022-11-24T00:28:34.196Z,61.40
2022-11-24T00:31:01.466Z,61.38
2022-11-24T00:33:27.880Z,58.22
2022-11-24T00:35:59.185Z,57.25
2022-11-24T00:38:25.918Z,55.15
2022-11-24T00:40:52.967Z,50.20
2022-11-24T00:43:19.739Z,53.03
2022-11-24T00:45:46.197Z,43.40
2022-11-24T00:48:12.697Z,45.83
2022-11-24T00:50:39.064Z,50.40
2022-11-24T00:53:05.453Z,44.42
2022-11-24T00:55:31.911Z,48.17
2022-11-24T00:57:58.379Z,46.13
2022-11-24T01:00:24.797Z,44.60
2022-11-24T01:02:52.776Z,43.72
2022-11-24T01:05:19.313Z,45.10
2022-11-24T01:07:45.730Z,37.38
2022-11-24T01:10:12.159Z,39.28
2022-11-24T01:12:38.510Z,40.63
2022-11-24T01:15:05.351Z,40.85
2022-11-24T01:17:31.776Z,43.55
2022-11-24T01:19:58.127Z,42.38
2022-11-24T01:22:26.387Z,38.65
2022-11-24T01:24:52.774Z,47.17
2022-11-24T01:27:19.134Z,41.13
2022-11-24T01:29:45.518Z,39.83
2022-11-24T01:32:11.898Z,37.42
2022-11-24T01:34:38.244Z,34.08
2022-11-24T01:37:04.757Z,37.45
2022-11-24T01:39:31.144Z,37.65
2022-11-24T01:42:01.471Z,39.50
2022-11-24T01:44:30.365Z,39.83
2022-11-24T01:47:21.140Z,38.10
2022-11-24T01:49:53.094Z,39.88
2022-11-24T01:52:24.729Z,38.88
2022-11-24T01:55:02.045Z,33.17
2022-11-24T01:57:34.529Z,44.38
2022-11-24T02:00:06.248Z,31.77
2022-11-24T02:02:32.709Z,33.42
2022-11-24T02:05:05.618Z,33.25
2022-11-24T02:07:33.067Z,38.17
2022-11-24T02:12:28.693Z,35.03
2022-11-24T02:14:55.926Z,37.03
2022-11-24T02:17:22.662Z,33.25
2022-11-24T02:20:00.659Z,41.77
2022-11-24T02:22:49.395Z,36.40
2022-11-24T02:25:32.264Z,37.63
2022-11-24T02:28:00.418Z,40.60
2022-11-24T02:30:26.798Z,38.83
2022-11-24T02:32:53.721Z,40.22
2022-11-24T02:35:20.669Z,37.05
2022-11-24T02:37:47.051Z,30.98
2022-11-24T02:40:20.579Z,44.17
2022-11-24T02:42:47.388Z,42.33
2022-11-24T02:45:16.504Z,31.75
2022-11-24T02:47:43.571Z,40.83
2022-11-24T02:50:10.108Z,40.95
2022-11-24T02:52:36.556Z,45.58
2022-11-24T02:55:03.206Z,39.42
2022-11-24T02:57:29.795Z,42.83
2022-11-24T02:59:56.485Z,35.63
2022-11-24T03:02:23.095Z,35.00
2022-11-24T03:04:49.528Z,38.57
2022-11-24T03:07:15.938Z,34.70
2022-11-24T03:09:42.400Z,35.17
2022-11-24T03:12:08.764Z,34.67
2022-11-24T03:14:35.278Z,33.58
2022-11-24T03:17:01.831Z,36.33
2022-11-24T03:19:28.178Z,36.97
2022-11-24T03:21:54.572Z,38.60
2022-11-24T03:24:21.034Z,35.85
2022-11-24T03:26:47.393Z,40.28
2022-11-24T03:29:13.731Z,37.58
2022-11-24T03:31:40.203Z,38.08
2022-11-24T03:34:06.636Z,38.08
2022-11-24T03:36:32.995Z,35.63
2022-11-24T03:38:59.351Z,35.13
2022-11-24T03:41:25.973Z,35.78
2022-11-24T03:43:52.349Z,35.30
2022-11-24T03:46:18.883Z,36.42
2022-11-24T03:48:45.297Z,32.03
2022-11-24T03:51:11.661Z,33.42
2022-11-24T03:53:38.356Z,35.25
2022-11-24T03:56:04.788Z,40.95
2022-11-24T03:58:31.194Z,35.75
2022-11-24T04:00:57.645Z,36.58
2022-11-24T04:03:24.812Z,41.75
2022-11-24T04:05:51.362Z,44.95
2022-11-24T04:08:17.851Z,41.30
2022-11-24T04:10:44.231Z,36.95
2022-11-24T04:13:14.012Z,35.42
2022-11-24T04:15:41.788Z,32.42
2022-11-24T04:18:09.801Z,37.78
2022-11-24T04:20:37.099Z,35.60
2022-11-24T04:23:03.768Z,36.70
2022-11-24T04:25:30.440Z,33.10
2022-11-24T04:27:56.918Z,39.38
2022-11-24T04:30:24.778Z,38.85
2022-11-24T04:32:51.312Z,35.05
2022-11-24T04:35:18.263Z,37.85
2022-11-24T04:37:44.879Z,40.40
2022-11-24T04:40:12.418Z,37.97
2022-11-24T04:42:38.961Z,36.88
2022-11-24T04:45:06.346Z,32.47
2022-11-24T04:47:33.087Z,34.95
2022-11-24T04:49:59.611Z,39.50
2022-11-24T04:52:26.494Z,39.53
2022-11-24T04:54:52.946Z,36.95
2022-11-24T04:57:25.079Z,35.50
2022-11-24T04:59:52.690Z,39.53
2022-11-24T05:04:46.175Z,38.22
2022-11-24T05:07:18.849Z,42.90
2022-11-24T05:10:24.991Z,39.15
2022-11-24T05:12:59.352Z,37.97
2022-11-24T05:15:26.205Z,38.33
2022-11-24T05:17:52.725Z,39.63
2022-11-24T05:20:19.581Z,39.08
2022-11-24T05:22:45.957Z,42.08
2022-11-24T05:25:14.169Z,41.90
2022-11-24T05:27:41.117Z,44.90
2022-11-24T05:30:08.201Z,41.92
2022-11-24T05:32:34.598Z,46.47
2022-11-24T05:35:02.222Z,40.92
2022-11-24T05:39:55.112Z,43.07
2022-11-24T05:42:43.528Z,49.67
2022-11-24T05:45:16.147Z,43.17
2022-11-24T05:47:43.003Z,41.88
2022-11-24T05:50:11.696Z,42.67
2022-11-24T05:52:38.615Z,43.85
2022-11-24T05:55:06.629Z,48.65
2022-11-24T05:57:33.573Z,42.65
2022-11-24T06:00:00.233Z,43.55
2022-11-24T06:02:26.969Z,44.85
2022-11-24T06:04:53.442Z,46.47
2022-11-24T06:07:20.006Z,38.28
2022-11-24T06:09:46.817Z,40.20
2022-11-24T06:12:13.738Z,38.65
2022-11-24T06:14:40.828Z,53.88
2022-11-24T06:17:07.761Z,69.40
2022-11-24T06:19:37.379Z,81.28
2022-11-24T06:22:06.459Z,78.05
2022-11-24T06:24:33.113Z,87.18
2022-11-24T06:26:59.766Z,70.78
2022-11-24T06:29:26.168Z,66.35
2022-11-24T06:31:52.633Z,70.70
2022-11-24T06:34:19.176Z,60.63
2022-11-24T06:36:45.540Z,60.60
2022-11-24T06:39:11.935Z,71.82
2022-11-24T06:41:38.313Z,81.82
2022-11-24T06:44:05.005Z,73.90
2022-11-24T06:46:31.595Z,66.37
2022-11-24T06:48:59.677Z,63.75
2022-11-24T06:51:27.030Z,65.50
2022-11-24T06:53:53.749Z,63.75
2022-11-24T06:56:21.015Z,66.93
2022-11-24T06:58:50.162Z,54.53
2022-11-24T07:01:22.170Z,47.00
2022-11-24T07:03:48.998Z,45.03
2022-11-24T07:06:16.592Z,58.53
2022-11-24T07:11:15.398Z,53.42
2022-11-24T07:13:42.864Z,45.45
2022-11-24T07:16:17.941Z,47.45
2022-11-24T07:18:46.219Z,47.17
2022-11-24T07:21:13.382Z,48.53
2022-11-24T07:23:40.040Z,50.90
2022-11-24T07:26:07.629Z,144.63
2022-11-24T07:28:35.051Z,74.53
2022-11-24T07:31:06.559Z,52.50
2022-11-24T07:33:32.989Z,45.35
2022-11-24T07:36:00.569Z,45.67
2022-11-24T07:40:53.337Z,62.20
2022-11-24T07:43:20.426Z,67.03
2022-11-24T07:45:52.509Z,57.65
2022-11-24T07:48:18.968Z,50.72
2022-11-24T07:50:45.441Z,51.08
2022-11-24T07:53:12.145Z,51.17
2022-11-24T07:55:38.508Z,53.15
2022-11-24T07:58:04.952Z,57.40
2022-11-24T08:00:31.307Z,52.28
2022-11-24T08:02:57.780Z,48.72
2022-11-24T08:05:24.216Z,48.20
2022-11-24T08:07:50.716Z,44.97
2022-11-24T08:10:17.973Z,38.90
2022-11-24T08:12:44.485Z,48.38
2022-11-24T08:15:11.619Z,44.53
2022-11-24T08:17:38.232Z,45.40
2022-11-24T08:20:05.320Z,37.25
2022-11-24T08:22:31.778Z,42.75
2022-11-24T08:24:58.305Z,44.10
2022-11-24T08:27:24.811Z,47.28
2022-11-24T08:29:51.246Z,56.40
2022-11-24T08:32:22.335Z,80.68
2022-11-24T08:34:48.996Z,118.78
2022-11-24T08:37:15.398Z,110.47
2022-11-24T08:39:41.754Z,123.90
2022-11-24T08:42:08.148Z,80.72
2022-11-24T08:44:34.672Z,61.60
2022-11-24T08:47:01.151Z,63.77
2022-11-24T08:49:27.700Z,59.00
2022-11-24T08:51:56.696Z,61.65
2022-11-24T08:54:23.254Z,50.67
2022-11-24T08:56:50.021Z,46.97
2022-11-24T08:59:16.587Z,57.13
2022-11-24T09:01:43.117Z,40.43
2022-11-24T09:04:09.774Z,25.65
2022-11-24T09:06:36.302Z,24.43
2022-11-24T09:09:03.291Z,22.83
2022-11-24T09:11:30.725Z,35.97
2022-11-24T09:13:57.119Z,33.67
2022-11-24T09:16:26.316Z,27.85
2022-11-24T09:19:01.249Z,32.65
2022-11-24T09:21:28.492Z,26.63
2022-11-24T09:23:55.708Z,20.65
2022-11-24T09:26:27.604Z,25.80
2022-11-24T09:28:55.507Z,22.60
2022-11-24T09:31:25.195Z,23.10
2022-11-24T09:33:52.428Z,20.65
2022-11-24T09:36:19.318Z,20.67
2022-11-24T09:38:45.899Z,18.40
2022-11-24T09:41:18.326Z,20.92
2022-11-24T09:44:22.379Z,23.30
2022-11-24T09:47:03.844Z,21.63
2022-11-24T09:49:30.172Z,20.73
2022-11-24T09:51:57.456Z,16.80
2022-11-24T09:54:28.453Z,19.67
2022-11-24T09:56:59.759Z,25.05
2022-11-24T09:59:27.445Z,20.80
2022-11-24T10:01:54.903Z,17.33
2022-11-24T10:04:22.794Z,18.27
2022-11-24T10:07:09.085Z,18.63
2022-11-24T10:10:07.080Z,17.13
2022-11-24T10:13:16.488Z,17.88
2022-11-24T10:16:14.974Z,18.10
2022-11-24T10:19:02.492Z,19.48
2022-11-24T10:21:40.668Z,16.77
2022-11-24T10:24:44.668Z,17.88
2022-11-24T10:27:18.276Z,18.15
2022-11-24T10:29:48.107Z,14.38
2022-11-24T10:32:18.837Z,15.43
2022-11-24T10:34:48.755Z,17.13
2022-11-24T10:37:28.551Z,13.20
2022-11-24T10:40:40.425Z,13.55
2022-11-24T10:43:00.808Z,14.15
2022-11-24T10:45:28.997Z,15.70
2022-11-24T10:47:57.784Z,12.82
2022-11-24T10:50:38.033Z,11.85
2022-11-24T10:53:13.673Z,14.93
2022-11-24T10:55:55.747Z,15.80
2022-11-24T10:58:26.756Z,11.80
2022-11-24T11:00:54.686Z,15.13
2022-11-24T11:03:24.079Z,12.82
2022-11-24T11:06:15.072Z,13.30
2022-11-24T11:08:41.478Z,14.70
2022-11-24T11:11:27.390Z,12.82
2022-11-24T11:14:03.993Z,12.77
2022-11-24T11:16:54.030Z,12.60
2022-11-24T11:19:49.058Z,15.23
2022-11-24T11:22:25.947Z,10.65
2022-11-24T11:25:29.583Z,13.43
2022-11-24T11:28:18.649Z,11.25
2022-11-24T11:31:20.432Z,13.20
2022-11-24T11:34:23.503Z,12.15
2022-11-24T11:36:56.166Z,11.73
2022-11-24T11:39:43.842Z,12.27
2022-11-24T11:43:00.726Z,14.85
2022-11-24T11:45:30.841Z,10.10
2022-11-24T11:48:03.439Z,14.73
2022-11-24T11:51:14.792Z,14.02
2022-11-24T11:53:45.753Z,14.43
2022-11-24T11:56:24.424Z,12.32
2022-11-24T11:59:06.459Z,12.32
2022-11-24T12:01:46.911Z,10.18
2022-11-24T12:04:22.436Z,8.73
2022-11-24T12:07:06.047Z,10.07
2022-11-24T12:09:46.978Z,7.55
2022-11-24T12:12:38.857Z,11.10
2022-11-24T12:15:37.677Z,8.20
2022-11-24T12:18:26.786Z,11.88
2022-11-24T12:21:17.062Z,10.10
2022-11-24T12:23:53.369Z,13.45
2022-11-24T12:26:43.892Z,13.45
2022-11-24T12:29:37.024Z,15.88
2022-11-24T12:32:06.320Z,17.90
2022-11-24T12:34:53.045Z,19.05
2022-11-24T12:38:02.800Z,19.73
2022-11-24T12:40:35.105Z,17.85
2022-11-24T12:43:11.842Z,14.40
2022-11-24T12:46:19.733Z,16.60
2022-11-24T12:49:04.471Z,10.10
2022-11-24T12:51:38.304Z,9.50
2022-11-24T12:54:10.401Z,12.07
2022-11-24T12:56:43.256Z,10.77
2022-11-24T12:59:33.197Z,12.88
2022-11-24T13:02:21.426Z,11.13
2022-11-24T13:05:06.872Z,16.23
2022-11-24T13:07:42.760Z,12.93
2022-11-24T13:13:15.219Z,11.48
2022-11-24T13:16:20.578Z,7.85
2022-11-24T13:19:00.201Z,7.85
2022-11-24T13:21:42.814Z,7.28
2022-11-24T13:24:19.700Z,9.75
2022-11-24T13:26:55.295Z,9.32
2022-11-24T13:29:28.302Z,11.38
2022-11-24T13:31:55.977Z,9.07
2022-11-24T13:34:41.084Z,10.70
2022-11-24T13:37:39.544Z,10.82
2022-11-24T13:40:12.084Z,13.70
2022-11-24T13:43:02.734Z,9.20
2022-11-24T13:45:49.664Z,10.60
2022-11-24T13:48:18.930Z,10.45
2022-11-24T13:50:51.731Z,11.15
2022-11-24T13:53:38.558Z,8.45
2022-11-24T13:56:14.273Z,11.43
2022-11-24T13:58:48.623Z,12.98
2022-11-24T14:01:33.159Z,6.40
2022-11-24T14:07:09.554Z,24.90
2022-11-24T14:09:47.019Z,16.23
2022-11-24T14:12:13.424Z,14.68
2022-11-24T14:14:40.494Z,10.98
2022-11-24T14:17:12.917Z,11.60
2022-11-24T14:19:39.579Z,13.23
2022-11-24T14:22:06.027Z,9.10
2022-11-24T14:24:38.245Z,8.75
2022-11-24T14:27:15.325Z,10.00
2022-11-24T14:30:04.726Z,7.90
2022-11-24T14:32:31.282Z,10.38
2022-11-24T14:34:57.823Z,10.30
2022-11-24T14:37:24.569Z,12.02
2022-11-24T14:39:51.088Z,9.10
2022-11-24T14:42:23.705Z,11.32
2022-11-24T14:45:17.732Z,9.48
2022-11-24T14:47:45.188Z,13.00
2022-11-24T14:50:16.163Z,9.27
2022-11-24T14:52:52.419Z,9.95
2022-11-24T14:55:29.596Z,9.63
2022-11-24T14:57:56.680Z,10.07
2022-11-24T15:00:31.531Z,7.90
2022-11-24T15:03:01.042Z,10.88
2022-11-24T15:05:53.527Z,9.82
2022-11-24T15:08:20.235Z,16.80
2022-11-24T15:10:46.955Z,11.65
2022-11-24T15:13:20.475Z,12.63
2022-11-24T15:15:51.712Z,14.27
2022-11-24T15:18:27.842Z,11.00
2022-11-24T15:20:54.812Z,12.70
2022-11-24T15:23:26.114Z,13.43
2022-11-24T15:25:54.442Z,9.38
2022-11-24T15:28:25.989Z,15.88
2022-11-24T15:31:03.981Z,15.60
2022-11-24T15:33:31.106Z,19.13
2022-11-24T15:35:58.042Z,20.27
2022-11-24T15:38:24.476Z,16.73
2022-11-24T15:40:52.781Z,18.50
2022-11-24T15:43:36.735Z,17.48
2022-11-24T15:46:04.447Z,18.27
2022-11-24T15:48:31.093Z,12.55
2022-11-24T15:50:59.254Z,17.93
2022-11-24T15:53:30.140Z,17.40
2022-11-24T15:55:57.393Z,13.77
2022-11-24T15:58:24.222Z,20.10
2022-11-24T16:00:53.807Z,20.27
2022-11-24T16:06:12.719Z,13.27
2022-11-24T16:08:39.147Z,18.20
2022-11-24T16:11:05.723Z,18.52
2022-11-24T16:13:32.234Z,14.88
2022-11-24T16:15:58.753Z,22.27
2022-11-24T16:18:25.281Z,15.07
2022-11-24T16:20:51.663Z,14.10
2022-11-24T16:23:18.388Z,16.13
2022-11-24T16:25:44.999Z,16.67
2022-11-24T16:28:11.467Z,22.40
2022-11-24T16:30:38.202Z,36.08
2022-11-24T16:33:08.235Z,54.33
2022-11-24T16:35:34.635Z,54.63
2022-11-24T16:38:01.104Z,49.75
2022-11-24T16:40:28.553Z,39.75
2022-11-24T16:45:22.716Z,38.85
2022-11-24T16:47:49.224Z,41.58
2022-11-24T16:50:15.776Z,41.35
2022-11-24T16:52:42.288Z,38.35
2022-11-24T16:55:09.741Z,29.92
2022-11-24T16:57:36.833Z,33.10
2022-11-24T17:00:05.095Z,30.80
2022-11-24T17:02:32.810Z,32.92
2022-11-24T17:04:59.230Z,34.63
2022-11-24T17:07:26.335Z,27.10
2022-11-24T17:09:52.758Z,25.92
2022-11-24T17:12:19.285Z,28.08
2022-11-24T17:15:03.113Z,24.42
2022-11-24T17:17:32.262Z,25.20
2022-11-24T17:19:58.674Z,29.17
2022-11-24T17:22:25.142Z,29.08
2022-11-24T17:24:51.523Z,29.33
2022-11-24T17:27:17.994Z,33.10
2022-11-24T17:29:44.394Z,31.42
2022-11-24T17:32:10.830Z,27.30
2022-11-24T17:34:37.452Z,28.50
2022-11-24T17:37:04.005Z,24.53
2022-11-24T17:39:30.410Z,35.10
2022-11-24T17:41:56.773Z,27.08
2022-11-24T17:44:23.245Z,23.60
2022-11-24T17:49:18.274Z,27.73
2022-11-24T17:51:50.243Z,24.27
2022-11-24T17:54:45.545Z,26.60
2022-11-24T17:57:04.511Z,21.70
2022-11-24T17:59:30.914Z,28.95
2022-11-24T18:01:57.391Z,22.55
2022-11-24T18:04:23.807Z,30.63
2022-11-24T18:06:50.195Z,33.78
2022-11-24T18:09:16.650Z,28.13
2022-11-24T18:11:43.197Z,28.40
2022-11-24T18:14:09.849Z,29.70
2022-11-24T18:16:36.284Z,27.00
2022-11-24T18:19:08.785Z,23.33
2022-11-24T18:21:40.693Z,38.78
2022-11-24T18:24:09.004Z,26.27
2022-11-24T18:26:35.640Z,29.58
2022-11-24T18:29:02.267Z,32.63
2022-11-24T18:31:29.575Z,44.53
2022-11-24T18:33:56.155Z,43.72
2022-11-24T18:36:29.865Z,33.17
2022-11-24T18:38:57.863Z,31.10
2022-11-24T18:41:24.219Z,39.97
2022-11-24T18:43:50.679Z,37.65
2022-11-24T18:46:17.661Z,36.83
2022-11-24T18:48:45.375Z,36.13
2022-11-24T18:51:15.329Z,49.13
2022-11-24T18:53:43.143Z,32.67
2022-11-24T18:56:15.724Z,26.38
2022-11-24T18:58:43.204Z,26.73
2022-11-24T19:01:21.449Z,21.52
2022-11-24T19:03:51.069Z,28.15
2022-11-24T19:06:39.358Z,22.23
2022-11-24T19:09:08.946Z,22.25
2022-11-24T19:11:38.385Z,23.23
2022-11-24T19:14:06.829Z,23.25
2022-11-24T19:16:34.175Z,25.80
2022-11-24T19:19:02.475Z,18.98
2022-11-24T19:21:31.711Z,24.52
2022-11-24T19:24:04.208Z,27.50
2022-11-24T19:26:31.835Z,25.83
2022-11-24T19:28:58.353Z,25.53
2022-11-24T19:31:24.782Z,20.23
2022-11-24T19:33:52.829Z,25.30
2022-11-24T19:36:21.054Z,22.88
2022-11-24T19:38:52.487Z,23.42
2022-11-24T19:41:20.708Z,23.67
2022-11-24T19:43:47.986Z,23.85
2022-11-24T19:46:17.029Z,29.23
2022-11-24T19:48:45.613Z,31.25
2022-11-24T19:51:14.852Z,25.00
2022-11-24T19:53:42.753Z,26.02
2022-11-24T19:56:17.342Z,25.48
2022-11-24T19:58:44.189Z,22.88
2022-11-24T20:01:13.425Z,22.45
2022-11-24T20:03:41.284Z,28.60
2022-11-24T20:06:09.989Z,26.85
2022-11-24T20:08:37.701Z,27.38
2022-11-24T20:11:07.982Z,36.13
2022-11-24T20:13:35.794Z,32.47
2022-11-24T20:16:09.079Z,28.10
2022-11-24T20:18:41.718Z,29.48
2022-11-24T20:21:11.081Z,26.40
2022-11-24T20:23:38.026Z,30.75
2022-11-24T20:26:07.355Z,33.78
2022-11-24T20:28:34.036Z,28.27
2022-11-24T20:31:05.257Z,22.60
2022-11-24T20:33:32.138Z,24.67
2022-11-24T20:36:04.045Z,29.83
2022-11-24T20:38:30.941Z,23.92
2022-11-24T20:41:09.000Z,23.70
2022-11-24T20:43:36.608Z,21.42
2022-11-24T20:46:08.383Z,20.35
2022-11-24T20:48:35.484Z,19.15
2022-11-24T20:51:08.135Z,19.23
2022-11-24T20:53:35.190Z,23.35
2022-11-24T20:56:06.142Z,19.30
2022-11-24T20:58:34.576Z,20.42
2022-11-24T21:01:12.168Z,18.95
2022-11-24T21:03:43.281Z,21.23
2022-11-24T21:06:11.757Z,21.98
2022-11-24T21:08:39.359Z,25.67
2022-11-24T21:13:34.508Z,23.60
2022-11-24T21:16:10.662Z,26.30
2022-11-24T21:18:37.104Z,25.13
2022-11-24T21:21:03.426Z,25.08
2022-11-24T21:23:29.808Z,23.20
2022-11-24T21:26:05.244Z,22.52
2022-11-24T21:28:32.329Z,20.77
2022-11-24T21:31:10.220Z,18.38
2022-11-24T21:33:45.515Z,18.58
2022-11-24T21:36:14.621Z,21.52
2022-11-24T21:38:42.539Z,21.02
2022-11-24T21:41:10.849Z,30.35
2022-11-24T21:43:37.540Z,26.92
2022-11-24T21:46:06.836Z,28.33
2022-11-24T21:48:35.685Z,30.63
2022-11-24T21:51:04.339Z,24.83
2022-11-24T21:53:33.440Z,22.42
2022-11-24T21:56:01.633Z,22.23
2022-11-24T21:58:29.604Z,25.08
2022-11-24T22:01:02.492Z,23.95
2022-11-24T22:03:29.651Z,21.02
2022-11-24T22:05:57.714Z,24.33
2022-11-24T22:08:25.885Z,21.73
2022-11-24T22:10:52.855Z,25.35
2022-11-24T22:13:20.049Z,25.88
2022-11-24T22:15:46.406Z,22.58
2022-11-24T22:18:12.775Z,20.05
2022-11-24T22:20:39.280Z,22.30
2022-11-24T22:23:05.622Z,20.98
2022-11-24T22:25:33.366Z,24.30
2022-11-24T22:27:59.983Z,24.48
2022-11-24T22:30:26.409Z,22.67
2022-11-24T22:32:53.133Z,28.25
2022-11-24T22:35:19.489Z,29.02
2022-11-24T22:37:46.032Z,24.23
2022-11-24T22:40:12.577Z,26.48
2022-11-24T22:42:38.940Z,22.73
2022-11-24T22:45:05.980Z,23.75
2022-11-24T22:47:32.405Z,34.60
2022-11-24T22:49:58.829Z,29.33
2022-11-24T22:52:25.225Z,32.00
2022-11-24T22:54:51.591Z,31.08
2022-11-24T22:57:18.002Z,29.50
2022-11-24T22:59:44.357Z,27.17
2022-11-24T23:02:10.729Z,26.92
2022-11-24T23:04:37.450Z,28.63
2022-11-24T23:07:03.964Z,27.05
2022-11-24T23:09:30.372Z,26.17
2022-11-24T23:11:56.727Z,18.17
2022-11-24T23:14:23.189Z,27.63
2022-11-24T23:16:49.634Z,21.98
2022-11-24T23:19:16.092Z,21.05
2022-11-24T23:21:42.438Z,22.88
2022-11-24T23:24:10.447Z,17.25
2022-11-24T23:26:39.555Z,17.90
2022-11-24T23:29:06.937Z,16.38
2022-11-24T23:31:33.778Z,21.75
2022-11-24T23:34:03.020Z,19.95
2022-11-24T23:36:30.244Z,16.52
2022-11-24T23:39:01.559Z,19.48
2022-11-24T23:41:30.376Z,22.02
2022-11-24T23:43:56.745Z,24.15
2022-11-24T23:46:25.114Z,21.73
2022-11-24T23:48:53.539Z,21.38
2022-11-24T23:51:31.041Z,23.83
2022-11-24T23:53:58.588Z,22.48
2022-11-24T23:58:52.548Z,23.27
